Terminal Aerodrome Forecast
Issued by NWS Boise, ID

Home | Current Version | Previous Version | Text Only | Print | Product List | Glossary On
Versions: 1 2 3 4 5 6 7 8 9 10 11 12 13 14 15 16 17 18 19 20 21 22 23 24 25 26
000
FTUS45 KBOI 041740
TAFBNO
TAF
KBNO 041740Z 0418/0518 VRB05KT P6SM SCT200
     FM042100 26006KT P6SM -SHRA BKN050 OVC100
     FM050000 29009KT P6SM -SHRA BKN020 OVC040
     FM051200 27010KT P6SM BKN040=

USA.gov is the U.S. government's official web portal to all federal, state and local government web resources and services.